createdAt,value
2023-03-03T00:00:58.533Z,14.50
2023-03-03T00:03:27.346Z,14.23
2023-03-03T00:05:54.924Z,13.73
2023-03-03T00:08:23.221Z,13.83
2023-03-03T00:10:50.366Z,14.50
2023-03-03T00:13:22.576Z,15.37
2023-03-03T00:15:50.241Z,15.43
2023-03-03T00:18:19.701Z,14.70
2023-03-03T00:20:53.075Z,15.93
2023-03-03T00:23:23.576Z,15.87
2023-03-03T00:25:51.832Z,16.53
2023-03-03T00:28:22.532Z,15.00
2023-03-03T00:30:50.119Z,15.83
2023-03-03T00:33:40.187Z,15.27
2023-03-03T00:36:16.506Z,14.87
2023-03-03T00:38:43.948Z,14.93
2023-03-03T00:41:31.304Z,14.67
2023-03-03T00:43:58.418Z,15.93
2023-03-03T00:46:25.558Z,14.97
2023-03-03T00:48:52.856Z,15.43
2023-03-03T00:51:20.032Z,16.30
2023-03-03T00:53:47.182Z,15.50
2023-03-03T00:56:14.476Z,16.10
2023-03-03T00:58:41.857Z,15.50
2023-03-03T01:01:09.222Z,16.70
2023-03-03T01:03:36.316Z,15.57
2023-03-03T01:06:03.459Z,16.07
2023-03-03T01:08:30.594Z,15.50
2023-03-03T01:11:04.273Z,15.57
2023-03-03T01:13:32.735Z,16.10
2023-03-03T01:16:00.405Z,14.87
2023-03-03T01:18:28.130Z,14.87
2023-03-03T01:20:55.278Z,14.93
2023-03-03T01:23:22.399Z,15.03
2023-03-03T01:25:49.911Z,15.63
2023-03-03T01:28:17.029Z,15.37
2023-03-03T01:30:44.192Z,15.53
2023-03-03T01:33:11.317Z,15.30
2023-03-03T01:35:40.964Z,16.20
2023-03-03T01:38:08.157Z,15.13
2023-03-03T01:40:35.277Z,16.10
2023-03-03T01:43:02.389Z,15.03
2023-03-03T01:45:29.561Z,15.07
2023-03-03T01:47:56.639Z,15.83
2023-03-03T01:50:33.317Z,16.37
2023-03-03T01:53:02.446Z,15.43
2023-03-03T01:55:37.402Z,16.27
2023-03-03T01:58:24.748Z,15.10
2023-03-03T02:00:53.677Z,15.70
2023-03-03T02:03:21.457Z,15.23
2023-03-03T02:05:49.708Z,16.90
2023-03-03T02:08:19.614Z,16.07
2023-03-03T02:10:47.356Z,16.93
2023-03-03T02:13:14.546Z,15.87
2023-03-03T02:15:41.931Z,15.53
2023-03-03T02:18:13.202Z,16.17
2023-03-03T02:20:52.537Z,17.23
2023-03-03T02:23:28.704Z,17.23
2023-03-03T02:26:00.320Z,17.93
2023-03-03T02:28:29.324Z,17.47
2023-03-03T02:30:57.086Z,17.33
2023-03-03T02:33:24.364Z,17.10
2023-03-03T02:35:51.966Z,17.33
2023-03-03T02:38:30.286Z,16.43
2023-03-03T02:41:16.089Z,16.50
2023-03-03T02:43:50.576Z,17.27
2023-03-03T02:46:17.725Z,16.73
2023-03-03T02:48:44.841Z,18.17
2023-03-03T02:51:11.977Z,16.47
2023-03-03T02:53:39.160Z,17.00
2023-03-03T02:56:07.237Z,17.03
2023-03-03T02:58:34.347Z,16.57
2023-03-03T03:01:01.592Z,17.17
2023-03-03T03:03:28.779Z,16.53
2023-03-03T03:05:55.898Z,17.10
2023-03-03T03:08:23.248Z,17.20
2023-03-03T03:10:50.659Z,17.47
2023-03-03T03:13:17.875Z,18.23
2023-03-03T03:15:47.768Z,17.40
2023-03-03T03:18:15.347Z,17.97
2023-03-03T03:20:42.949Z,18.17
2023-03-03T03:23:10.708Z,18.37
2023-03-03T03:25:45.155Z,17.83
2023-03-03T03:28:12.918Z,18.33
2023-03-03T03:30:40.299Z,19.10
2023-03-03T03:33:07.861Z,17.43
2023-03-03T03:35:35.829Z,18.10
2023-03-03T03:38:03.217Z,17.40
2023-03-03T03:40:30.481Z,18.70
2023-03-03T03:42:57.609Z,18.17
2023-03-03T03:45:24.829Z,19.50
2023-03-03T03:47:51.955Z,19.53
2023-03-03T03:50:19.134Z,19.00
2023-03-03T03:52:46.300Z,19.73
2023-03-03T03:55:13.689Z,19.57
2023-03-03T03:57:40.954Z,20.17
2023-03-03T04:00:09.049Z,20.57
2023-03-03T04:02:36.506Z,20.73
2023-03-03T04:05:04.131Z,20.17
2023-03-03T04:07:31.345Z,20.13
2023-03-03T04:09:58.498Z,19.10
2023-03-03T04:12:25.596Z,19.27
2023-03-03T04:14:52.739Z,20.13
2023-03-03T04:17:24.990Z,19.43
2023-03-03T04:19:53.936Z,21.30
2023-03-03T04:22:21.147Z,19.93
2023-03-03T04:24:48.701Z,21.57
2023-03-03T04:27:16.232Z,21.27
2023-03-03T04:29:43.559Z,20.37
2023-03-03T04:32:10.745Z,20.40
2023-03-03T04:34:37.947Z,22.67
2023-03-03T04:37:05.041Z,20.70
2023-03-03T04:39:32.158Z,20.30
2023-03-03T04:41:59.376Z,19.13
2023-03-03T04:44:26.440Z,20.43
2023-03-03T04:46:53.567Z,22.23
2023-03-03T04:49:20.764Z,21.30
2023-03-03T04:51:47.903Z,20.87
2023-03-03T04:54:15.008Z,21.10
2023-03-03T04:56:42.150Z,20.87
2023-03-03T04:59:09.428Z,21.03
2023-03-03T05:01:36.629Z,20.30
2023-03-03T05:04:03.856Z,21.97
2023-03-03T05:06:31.020Z,21.77
2023-03-03T05:08:58.117Z,22.37
2023-03-03T05:11:25.249Z,21.50
2023-03-03T05:13:52.388Z,23.10
2023-03-03T05:16:19.632Z,22.73
2023-03-03T05:18:47.475Z,22.87
2023-03-03T05:21:14.627Z,22.43
2023-03-03T05:23:41.801Z,21.57
2023-03-03T05:26:09.032Z,23.60
2023-03-03T05:28:36.147Z,22.57
2023-03-03T05:31:03.275Z,22.47
2023-03-03T05:33:30.524Z,23.47
2023-03-03T05:35:58.097Z,23.17
2023-03-03T05:38:25.729Z,21.97
2023-03-03T05:40:52.940Z,25.53
2023-03-03T05:43:20.104Z,23.77
2023-03-03T05:45:47.281Z,24.47
2023-03-03T05:48:14.422Z,24.07
2023-03-03T05:50:41.568Z,23.07
2023-03-03T05:53:08.691Z,23.53
2023-03-03T05:55:35.805Z,33.20
2023-03-03T05:58:02.940Z,25.40
2023-03-03T06:00:30.115Z,25.07
2023-03-03T06:02:57.310Z,23.03
2023-03-03T06:05:24.511Z,24.63
2023-03-03T06:07:51.653Z,24.07
2023-03-03T06:10:18.802Z,24.43
2023-03-03T06:12:46.035Z,22.80
2023-03-03T06:15:13.210Z,24.07
2023-03-03T06:17:40.439Z,24.00
2023-03-03T06:20:07.808Z,23.97
2023-03-03T06:22:34.944Z,22.57
2023-03-03T06:25:02.246Z,24.33
2023-03-03T06:27:29.478Z,23.43
2023-03-03T06:29:56.614Z,23.90
2023-03-03T06:32:23.824Z,23.60
2023-03-03T06:34:51.016Z,22.33
2023-03-03T06:37:18.347Z,22.37
2023-03-03T06:39:45.505Z,22.00
2023-03-03T06:42:12.697Z,21.77
2023-03-03T06:44:39.978Z,23.00
2023-03-03T06:47:07.379Z,22.20
2023-03-03T06:49:34.544Z,22.73
2023-03-03T06:52:02.838Z,22.37
2023-03-03T06:54:31.047Z,22.83
2023-03-03T06:57:04.772Z,22.57
2023-03-03T06:59:31.875Z,21.97
2023-03-03T07:01:58.987Z,20.60
2023-03-03T07:04:29.128Z,22.57
2023-03-03T07:06:56.909Z,21.13
2023-03-03T07:09:25.608Z,20.43
2023-03-03T07:11:53.481Z,18.60
2023-03-03T07:14:21.363Z,17.13
2023-03-03T07:16:55.021Z,16.07
2023-03-03T07:19:24.550Z,16.90
2023-03-03T07:21:53.183Z,17.33
2023-03-03T07:24:30.193Z,17.17
2023-03-03T07:27:01.038Z,16.10
2023-03-03T07:29:30.532Z,16.77
2023-03-03T07:31:59.277Z,16.70
2023-03-03T07:34:47.008Z,17.00
2023-03-03T07:37:17.773Z,16.57
2023-03-03T07:39:46.120Z,17.53
2023-03-03T07:42:29.907Z,17.40
2023-03-03T07:44:58.206Z,17.83
2023-03-03T07:47:45.546Z,17.63
2023-03-03T07:50:23.234Z,17.73
2023-03-03T07:52:57.797Z,18.17
2023-03-03T07:55:37.959Z,17.03
2023-03-03T07:58:16.898Z,17.57
2023-03-03T08:00:44.070Z,18.07
2023-03-03T08:03:19.822Z,19.53
2023-03-03T08:05:48.521Z,18.30
2023-03-03T08:08:30.119Z,18.63
2023-03-03T08:11:00.890Z,19.70
2023-03-03T08:13:38.683Z,19.13
2023-03-03T08:16:11.996Z,19.10
2023-03-03T08:18:40.577Z,18.30
2023-03-03T08:21:07.690Z,19.90
2023-03-03T08:23:34.832Z,19.90
2023-03-03T08:26:01.958Z,19.48
2023-03-03T08:28:29.153Z,20.13
2023-03-03T08:31:12.473Z,20.58
2023-03-03T08:33:42.283Z,19.67
2023-03-03T08:36:09.586Z,19.50
2023-03-03T08:38:37.522Z,19.63
2023-03-03T08:41:05.089Z,19.92
2023-03-03T08:43:32.550Z,20.02
2023-03-03T08:46:01.041Z,19.67
2023-03-03T08:48:28.564Z,20.02
2023-03-03T08:50:56.093Z,19.48
2023-03-03T08:53:23.765Z,21.42
2023-03-03T08:55:50.958Z,19.75
2023-03-03T08:58:19.374Z,20.80
2023-03-03T09:00:49.699Z,20.35
2023-03-03T09:03:17.776Z,20.30
2023-03-03T09:05:45.741Z,20.17
2023-03-03T09:08:13.137Z,19.88
2023-03-03T09:10:40.342Z,20.52
2023-03-03T09:13:09.443Z,20.15
2023-03-03T09:15:38.464Z,20.55
2023-03-03T09:18:15.119Z,20.67
2023-03-03T09:20:46.309Z,20.83
2023-03-03T09:23:24.856Z,20.75
2023-03-03T09:25:52.782Z,20.60
2023-03-03T09:28:30.269Z,19.95
2023-03-03T09:30:58.697Z,19.15
2023-03-03T09:33:27.763Z,20.40
2023-03-03T09:35:57.756Z,20.60
2023-03-03T09:38:32.072Z,20.23
2023-03-03T09:41:28.633Z,20.13
2023-03-03T09:43:55.748Z,19.90
2023-03-03T09:46:41.773Z,19.65
2023-03-03T09:49:19.878Z,20.50
2023-03-03T09:52:00.744Z,19.80
2023-03-03T09:54:28.517Z,20.73
2023-03-03T09:57:05.530Z,19.92
2023-03-03T09:59:32.666Z,20.88
2023-03-03T10:02:18.069Z,20.10
2023-03-03T10:04:45.552Z,20.75
2023-03-03T10:07:30.929Z,19.65
2023-03-03T10:10:07.584Z,20.52
2023-03-03T10:12:48.432Z,21.05
2023-03-03T10:15:40.431Z,21.60
2023-03-03T10:18:10.661Z,19.90
2023-03-03T10:20:49.584Z,20.50
2023-03-03T10:23:24.756Z,20.13
2023-03-03T10:26:08.377Z,19.42
2023-03-03T10:28:47.295Z,20.70
2023-03-03T10:31:18.679Z,20.20
2023-03-03T10:33:49.743Z,19.83
2023-03-03T10:36:23.065Z,20.55
2023-03-03T10:39:03.540Z,21.45
2023-03-03T10:41:30.643Z,21.55
2023-03-03T10:44:00.957Z,20.25
2023-03-03T10:46:37.012Z,20.13
2023-03-03T10:49:19.704Z,21.25
2023-03-03T10:52:07.495Z,20.60
2023-03-03T10:54:46.586Z,20.60
2023-03-03T10:57:22.986Z,20.00
2023-03-03T11:00:07.867Z,20.50
2023-03-03T11:02:53.456Z,19.95
2023-03-03T11:05:33.676Z,19.38
2023-03-03T11:08:07.358Z,19.10
2023-03-03T11:10:40.082Z,19.25
2023-03-03T11:13:30.275Z,19.27
2023-03-03T11:16:14.845Z,18.80
2023-03-03T11:19:02.379Z,20.00
2023-03-03T11:21:41.413Z,19.20
2023-03-03T11:24:27.259Z,19.73
2023-03-03T11:27:05.898Z,19.30
2023-03-03T11:29:40.000Z,19.00
2023-03-03T11:32:45.589Z,19.15
2023-03-03T11:35:28.157Z,18.70
2023-03-03T11:38:15.546Z,17.73
2023-03-03T11:40:49.445Z,17.95
2023-03-03T11:43:29.873Z,17.17
2023-03-03T11:46:05.164Z,17.10
2023-03-03T11:48:35.342Z,17.67
2023-03-03T11:51:10.502Z,18.70
2023-03-03T11:53:40.981Z,18.25
2023-03-03T11:56:22.887Z,18.30
2023-03-03T11:59:08.570Z,18.02
2023-03-03T12:01:35.676Z,17.83
2023-03-03T12:04:04.417Z,19.25
2023-03-03T12:06:40.822Z,18.13
2023-03-03T12:09:26.821Z,17.60
2023-03-03T12:11:56.909Z,17.30
2023-03-03T12:14:33.584Z,17.67
2023-03-03T12:17:03.925Z,17.48
2023-03-03T12:19:43.159Z,15.93
2023-03-03T12:22:13.099Z,16.77
2023-03-03T12:24:46.186Z,16.33
2023-03-03T12:27:13.332Z,17.90
2023-03-03T12:29:46.847Z,15.82
2023-03-03T12:32:32.794Z,15.32
2023-03-03T12:35:18.219Z,16.00
2023-03-03T12:37:48.449Z,14.77
2023-03-03T12:40:27.300Z,15.55
2023-03-03T12:43:03.357Z,16.23
2023-03-03T12:45:33.473Z,15.52
2023-03-03T12:48:14.072Z,16.08
2023-03-03T12:50:41.130Z,15.70
2023-03-03T12:53:11.182Z,15.45
2023-03-03T12:55:51.172Z,16.08
2023-03-03T12:58:28.113Z,15.35
2023-03-03T13:01:00.255Z,15.05
2023-03-03T13:03:55.501Z,15.80
2023-03-03T13:06:25.832Z,15.13
2023-03-03T13:09:08.333Z,16.98
2023-03-03T13:11:38.444Z,15.30
2023-03-03T13:14:28.174Z,15.32
2023-03-03T13:17:16.559Z,16.48
2023-03-03T13:19:47.341Z,15.27
2023-03-03T13:22:18.541Z,14.68
2023-03-03T13:24:49.232Z,15.38
2023-03-03T13:27:19.102Z,14.98
2023-03-03T13:29:59.895Z,15.50
2023-03-03T13:32:32.921Z,13.73
2023-03-03T13:35:07.412Z,14.95
2023-03-03T13:37:43.514Z,14.13
2023-03-03T13:40:13.730Z,14.32
2023-03-03T13:42:42.417Z,15.48
2023-03-03T13:45:18.393Z,14.18
2023-03-03T13:47:54.325Z,13.23
2023-03-03T13:50:50.640Z,13.57
2023-03-03T13:53:33.349Z,13.18
2023-03-03T13:56:11.846Z,13.50
2023-03-03T13:58:44.853Z,13.40
2023-03-03T14:01:19.455Z,13.23
2023-03-03T14:04:05.207Z,13.57
2023-03-03T14:06:32.456Z,11.88
2023-03-03T14:09:02.336Z,11.65
2023-03-03T14:11:29.724Z,11.73
2023-03-03T14:14:05.267Z,10.52
2023-03-03T14:16:39.823Z,9.80
2023-03-03T14:19:12.806Z,9.63
2023-03-03T14:21:44.171Z,9.32
2023-03-03T14:24:17.164Z,9.77
2023-03-03T14:26:54.509Z,10.88
2023-03-03T14:29:27.387Z,10.20
2023-03-03T14:31:55.571Z,9.95
2023-03-03T14:34:41.752Z,10.52
2023-03-03T14:37:27.483Z,9.93
2023-03-03T14:40:02.266Z,10.50
2023-03-03T14:42:34.548Z,10.80
2023-03-03T14:45:04.593Z,10.05
2023-03-03T14:47:31.762Z,9.98
2023-03-03T14:50:03.490Z,9.90
2023-03-03T14:52:31.627Z,9.77
2023-03-03T14:55:00.695Z,10.05
2023-03-03T14:57:51.226Z,10.15
2023-03-03T15:00:24.529Z,9.70
2023-03-03T15:02:58.337Z,9.75
2023-03-03T15:05:26.827Z,9.98
2023-03-03T15:08:06.207Z,10.45
2023-03-03T15:10:37.295Z,10.30
2023-03-03T15:13:23.621Z,12.30
2023-03-03T15:15:50.699Z,10.60
2023-03-03T15:18:18.502Z,10.85
2023-03-03T15:21:05.868Z,10.55
2023-03-03T15:23:51.674Z,12.43
2023-03-03T15:26:25.189Z,10.32
2023-03-03T15:28:59.361Z,9.35
2023-03-03T15:31:32.687Z,9.88
2023-03-03T15:34:04.451Z,10.00
2023-03-03T15:36:39.929Z,10.88
2023-03-03T15:39:25.616Z,10.23
2023-03-03T15:42:11.765Z,10.40
2023-03-03T15:44:45.706Z,10.45
2023-03-03T15:47:42.125Z,9.90
2023-03-03T15:50:09.240Z,10.98
2023-03-03T15:52:54.552Z,10.27
2023-03-03T15:55:40.169Z,10.45
2023-03-03T15:58:10.321Z,10.30
2023-03-03T16:00:38.798Z,9.15
2023-03-03T16:03:11.487Z,9.73
2023-03-03T16:05:55.171Z,9.90
2023-03-03T16:08:42.503Z,9.53
2023-03-03T16:11:15.535Z,9.53
2023-03-03T16:14:01.757Z,9.33
2023-03-03T16:16:34.777Z,9.47
2023-03-03T16:19:22.116Z,8.77
2023-03-03T16:22:05.551Z,9.03
2023-03-03T16:24:51.310Z,8.43
2023-03-03T16:27:24.553Z,8.90
2023-03-03T16:30:30.355Z,9.37
2023-03-03T16:33:09.482Z,9.07
2023-03-03T16:35:43.608Z,9.47
2023-03-03T16:38:13.422Z,9.60
2023-03-03T16:40:45.757Z,8.67
2023-03-03T16:43:15.882Z,8.00
2023-03-03T16:45:43.366Z,8.80
2023-03-03T16:48:13.494Z,9.13
2023-03-03T16:50:40.754Z,8.53
2023-03-03T16:53:27.678Z,7.90
2023-03-03T16:56:00.487Z,8.07
2023-03-03T16:58:50.893Z,8.00
2023-03-03T17:01:37.937Z,7.80
2023-03-03T17:04:08.107Z,7.40
2023-03-03T17:06:55.023Z,7.50
2023-03-03T17:09:32.957Z,7.20
2023-03-03T17:12:01.545Z,7.53
2023-03-03T17:14:40.908Z,8.10
2023-03-03T17:17:08.144Z,7.60
2023-03-03T17:19:41.646Z,7.20
2023-03-03T17:22:27.643Z,9.60
2023-03-03T17:25:03.622Z,10.20
2023-03-03T17:27:30.996Z,8.17
2023-03-03T17:30:09.993Z,8.13
2023-03-03T17:32:56.827Z,7.87
2023-03-03T17:35:27.070Z,8.77
2023-03-03T17:38:00.562Z,9.63
2023-03-03T17:40:27.693Z,8.37
2023-03-03T17:42:57.549Z,11.40
2023-03-03T17:45:26.586Z,9.27
2023-03-03T17:47:56.497Z,8.57
2023-03-03T17:50:42.321Z,9.43
2023-03-03T17:53:18.614Z,7.97
2023-03-03T17:56:12.009Z,7.23
2023-03-03T17:58:45.434Z,7.30
2023-03-03T18:01:31.036Z,6.77
2023-03-03T18:04:01.080Z,8.20
2023-03-03T18:06:28.175Z,6.97
2023-03-03T18:09:13.561Z,7.40
2023-03-03T18:11:56.135Z,7.10
2023-03-03T18:14:29.732Z,7.20
2023-03-03T18:16:56.836Z,7.00
2023-03-03T18:19:32.934Z,6.57
2023-03-03T18:22:05.971Z,6.80
2023-03-03T18:24:38.360Z,6.90
2023-03-03T18:27:28.353Z,6.60
2023-03-03T18:30:14.270Z,7.27
2023-03-03T18:32:44.584Z,7.43
2023-03-03T18:35:28.903Z,7.43
2023-03-03T18:37:56.527Z,8.00
2023-03-03T18:40:36.045Z,7.70
2023-03-03T18:43:23.439Z,8.37
2023-03-03T18:45:51.074Z,8.33
2023-03-03T18:48:20.064Z,8.80
2023-03-03T18:50:48.777Z,8.47
2023-03-03T18:53:15.850Z,9.07
2023-03-03T18:55:50.432Z,8.97
2023-03-03T18:58:17.516Z,9.33
2023-03-03T19:00:52.069Z,9.37
2023-03-03T19:03:25.283Z,8.20
2023-03-03T19:05:57.843Z,7.67
2023-03-03T19:08:44.565Z,8.73
2023-03-03T19:11:30.013Z,8.77
2023-03-03T19:14:15.546Z,8.33
2023-03-03T19:16:42.716Z,8.30
2023-03-03T19:19:17.763Z,8.10
2023-03-03T19:21:48.139Z,8.30
2023-03-03T19:24:34.499Z,8.60
2023-03-03T19:27:30.206Z,8.30
2023-03-03T19:30:01.380Z,8.93
2023-03-03T19:32:35.097Z,8.30
2023-03-03T19:35:25.632Z,8.13
2023-03-03T19:37:55.640Z,8.83
2023-03-03T19:40:26.043Z,8.03
2023-03-03T19:43:00.576Z,8.50
2023-03-03T19:45:38.620Z,7.70
2023-03-03T19:48:17.733Z,8.40
2023-03-03T19:50:54.584Z,8.63
2023-03-03T19:53:35.621Z,8.53
2023-03-03T19:56:08.646Z,8.27
2023-03-03T19:58:57.297Z,8.47
2023-03-03T20:01:46.565Z,8.30
2023-03-03T20:04:32.406Z,8.10
2023-03-03T20:07:18.095Z,8.43
2023-03-03T20:09:45.160Z,8.50
2023-03-03T20:12:45.346Z,9.50
2023-03-03T20:15:15.855Z,9.70
2023-03-03T20:17:52.245Z,9.53
2023-03-03T20:20:19.342Z,9.17
2023-03-03T20:22:49.447Z,9.63
2023-03-03T20:25:26.322Z,10.20
2023-03-03T20:28:04.078Z,11.60
2023-03-03T20:30:54.293Z,9.50
2023-03-03T20:33:30.519Z,9.97
2023-03-03T20:36:06.605Z,10.10
2023-03-03T20:38:33.701Z,10.10
2023-03-03T20:41:19.170Z,10.33
2023-03-03T20:43:57.621Z,9.00
2023-03-03T20:46:35.170Z,8.80
2023-03-03T20:49:21.120Z,9.57
2023-03-03T20:51:48.223Z,9.33
2023-03-03T20:54:15.448Z,10.37
2023-03-03T20:56:54.055Z,10.10
2023-03-03T20:59:31.980Z,11.20
2023-03-03T21:01:59.133Z,10.73
2023-03-03T21:04:28.045Z,9.03
2023-03-03T21:06:55.749Z,9.40
2023-03-03T21:09:24.771Z,8.40
2023-03-03T21:11:51.896Z,8.23
2023-03-03T21:14:19.070Z,8.40
2023-03-03T21:16:46.336Z,8.00
2023-03-03T21:19:14.380Z,9.23
2023-03-03T21:21:45.107Z,9.40
2023-03-03T21:24:15.239Z,8.80
2023-03-03T21:26:45.857Z,8.30
2023-03-03T21:29:20.627Z,7.50
2023-03-03T21:31:51.977Z,8.20
2023-03-03T21:34:20.779Z,8.00
2023-03-03T21:36:48.911Z,7.70
2023-03-03T21:39:25.157Z,9.03
2023-03-03T21:42:00.026Z,7.97
2023-03-03T21:44:30.296Z,8.33
2023-03-03T21:46:58.677Z,8.30
2023-03-03T21:49:25.893Z,8.50
2023-03-03T21:51:53.082Z,9.40
2023-03-03T21:54:20.251Z,8.17
2023-03-03T21:56:48.082Z,9.10
2023-03-03T21:59:15.191Z,10.50
2023-03-03T22:01:42.435Z,10.40
2023-03-03T22:04:10.126Z,10.50
2023-03-03T22:06:37.539Z,10.50
2023-03-03T22:09:05.742Z,12.53
2023-03-03T22:11:33.076Z,10.40
2023-03-03T22:14:00.218Z,9.43
2023-03-03T22:16:27.406Z,9.47
2023-03-03T22:18:54.691Z,9.73
2023-03-03T22:21:21.816Z,9.43
2023-03-03T22:23:48.915Z,8.90
2023-03-03T22:26:16.059Z,10.33
2023-03-03T22:28:44.465Z,9.63
2023-03-03T22:31:11.825Z,10.50
2023-03-03T22:33:38.999Z,9.90
2023-03-03T22:36:06.337Z,10.10
2023-03-03T22:38:33.452Z,11.00
2023-03-03T22:41:00.632Z,11.90
2023-03-03T22:43:29.717Z,11.60
2023-03-03T22:45:57.266Z,11.23
2023-03-03T22:48:25.184Z,11.50
2023-03-03T22:50:52.575Z,10.50
2023-03-03T22:53:19.983Z,10.30
2023-03-03T22:55:47.251Z,10.97
2023-03-03T22:58:14.700Z,10.50
2023-03-03T23:00:42.649Z,11.13
2023-03-03T23:03:11.127Z,10.97
2023-03-03T23:05:38.484Z,10.47
2023-03-03T23:08:06.265Z,10.90
2023-03-03T23:10:33.830Z,10.77
2023-03-03T23:13:00.949Z,11.03
2023-03-03T23:15:28.343Z,10.47
2023-03-03T23:17:55.530Z,11.83
2023-03-03T23:20:24.232Z,11.57
2023-03-03T23:22:51.733Z,11.60
2023-03-03T23:25:19.940Z,13.00
2023-03-03T23:27:47.383Z,12.70
2023-03-03T23:30:15.265Z,12.17
2023-03-03T23:32:42.543Z,11.80
2023-03-03T23:35:10.409Z,11.60
2023-03-03T23:37:37.571Z,11.83
2023-03-03T23:40:04.845Z,12.40
2023-03-03T23:42:32.130Z,12.07
2023-03-03T23:44:59.518Z,11.97
2023-03-03T23:47:26.645Z,12.73
2023-03-03T23:49:53.772Z,11.70
2023-03-03T23:52:20.963Z,13.40
2023-03-03T23:54:48.334Z,11.77
2023-03-03T23:57:15.476Z,12.57
2023-03-03T23:59:42.592Z,12.13
